Latest Weather Observations for Mount Magnet Airport

IDW60801

Issued at 3:33 pm WST Friday 24 March 2017 (issued every 30 minutes, with the page automatically refreshed every 10 minutes)

About weather observations | Map of weather stations | Latest weather observations for WA | Other Formats
Station Details ID: 007600 Name: MOUNT MAGNET AERO Lat: -28.12 Lon: 117.84 Height: 407.0 m
Data from the previous 72 hours. | See also: Recent months at Mount Magnet Airport
Date/Time
WST
Temp
°C
App
Temp
°C
Dew
Point
°C
Rel
Hum
%
Delta-T
°C
Wind Press
QNH
hPa
Press
MSL
hPa
Rain since
9am
mm
Dir  Spd
km/h
Gust
km/h
Spd
kts
Gust
kts
24/03:30pm 21.9 21.8 20.7 93 0.8 SSE 22 28 12 15 1010.2 1007.6 0.8
24/03:00pm 21.8 21.4 20.1 90 1.1 SE 22 30 12 16 1010.4 1007.8 0.8
24/02:30pm 22.4 21.7 19.4 83 1.9 SE 22 28 12 15 1010.5 1007.9 0.8
24/02:00pm 21.8 22.1 20.3 91 1.0 SE 19 24 10 13 1010.6 1008.0 0.8
24/01:30pm 21.1 20.7 20.1 94 0.7 SSE 22 30 12 16 1011.0 1008.4 0.8
24/01:00pm 21.1 20.7 20.1 94 0.7 SSE 22 30 12 16 1011.4 1008.7 0.6
24/12:30pm 21.0 20.2 20.0 94 0.7 SSE 24 32 13 17 1011.8 1009.2 0.4
24/12:00pm 20.9 21.2 19.7 93 0.8 SE 17 26 9 14 1012.1 1009.5 0.2
24/11:30am 21.0 20.7 19.5 91 1.0 SSE 20 28 11 15 1012.5 1009.9 0.2
24/11:00am 21.3 20.8 19.2 88 1.4 SE 20 28 11 15 1012.7 1010.1 0.2
24/10:30am 21.0 20.5 19.1 89 1.2 SE 20 28 11 15 1013.0 1010.4 0.2
24/10:00am 20.4 20.1 19.1 92 0.8 SE 19 24 10 13 1013.0 1010.4 0.2
24/09:30am 20.7 20.0 18.6 88 1.3 SE 20 28 11 15 1013.2 1010.6 0.0
24/09:00am 20.9 20.1 18.5 86 1.5 SE 20 26 11 14 1013.2 1010.6 1.4
24/08:30am 20.4 19.8 18.9 91 1.0 SE 20 28 11 15 1012.8 1010.2 1.4
24/08:00am 19.4 19.6 18.6 95 0.5 SE 15 19 8 10 1012.7 1010.1 1.4
24/07:30am 18.6 18.8 17.6 94 0.6 SSE 13 15 7 8 1012.6 1010.0 1.4
24/07:00am 18.3 18.5 16.8 91 0.9 SE 11 13 6 7 1012.7 1010.1 0.2
24/06:30am 18.4 17.3 16.4 88 1.2 SE 17 20 9 11 1012.6 1010.0 0.0
24/06:00am 19.4 16.9 14.2 72 3.1 SE 20 26 11 14 1012.3 1009.7 0.0
24/05:30am 20.5 18.1 11.4 56 5.1 SE 15 19 8 10 1012.1 1009.5 0.0
24/05:00am 20.3 17.7 10.7 54 5.3 SSE 15 17 8 9 1012.0 1009.4 0.0
24/04:30am 20.0 17.7 10.4 54 5.3 SSE 13 17 7 9 1011.9 1009.3 0.0
24/04:00am 20.3 17.5 10.1 52 5.6 SSE 15 17 8 9 1011.8 1009.2 0.0
24/03:30am 20.4 18.0 9.9 51 5.7 SSE 13 15 7 8 1012.0 1009.4 0.0
24/03:00am 20.5 17.6 9.7 50 5.9 SSE 15 19 8 10 1011.9 1009.3 0.0
24/02:30am 20.9 17.7 9.8 49 6.1 SSE 17 22 9 12 1011.9 1009.3 0.0
24/02:00am 21.4 17.5 9.6 47 6.5 SSE 20 28 11 15 1011.8 1009.2 0.0
24/01:30am 21.9 18.1 9.8 46 6.7 S 20 26 11 14 1011.7 1009.1 0.0
24/01:00am 22.2 18.6 9.7 45 6.9 S 19 24 10 13 1011.7 1009.1 0.0
24/12:30am 22.7 18.8 8.8 41 7.6 S 19 22 10 12 1011.7 1009.1 0.0
24/12:00am 23.0 18.7 9.4 42 7.5 SSE 22 30 12 16 1011.9 1009.3 0.0
 
Date/Time
WST
Temp
°C
App
Temp
°C
Dew
Point
°C
Rel
Hum
%
Delta-T
°C
Wind Press
QNH
hPa
Press
MSL
hPa
Rain since
9am
mm
Dir  Spd
km/h
Gust
km/h
Spd
kts
Gust
kts
23/11:30pm 23.4 18.9 8.7 39 8.0 S 22 28 12 15 1012.2 1009.6 0.0
23/11:00pm 23.3 20.1 8.6 39 8.0 S 15 20 8 11 1012.6 1010.0 0.0
23/10:30pm 23.8 20.8 7.8 36 8.6 SE 13 17 7 9 1013.0 1010.4 0.0
23/10:00pm 24.2 21.1 7.4 34 9.0 SE 13 17 7 9 1013.4 1010.8 0.0
23/09:30pm 24.8 20.9 7.0 32 9.5 SSE 17 26 9 14 1013.4 1010.8 0.0
23/09:00pm 25.7 21.6 6.3 29 10.3 S 17 22 9 12 1012.8 1010.2 0.0
23/08:30pm 26.0 21.7 7.1 30 10.2 S 19 22 10 12 1012.5 1009.9 0.0
23/08:00pm 26.7 22.8 7.2 29 10.5 S 17 20 9 11 1012.1 1009.5 0.0
23/07:30pm 27.2 22.9 7.1 28 10.9 S 19 24 10 13 1011.8 1009.2 0.0
23/07:00pm 27.7 23.4 7.0 27 11.2 SSW 19 24 10 13 1011.2 1008.6 0.0
23/06:30pm 28.2 23.4 7.4 27 11.4 SSW 22 30 12 16 1010.8 1008.2 0.0
23/06:00pm 28.8 24.5 7.9 27 11.6 SSW 20 30 11 16 1010.3 1007.7 0.0
23/05:30pm 29.6 25.5 8.6 27 11.8 SSW 20 32 11 17 1010.1 1007.5 0.0
23/05:00pm 29.8 26.2 8.2 26 12.1 SW 17 26 9 14 1010.2 1007.6 0.0
23/04:30pm 30.7 27.9 8.4 25 12.5 SW 13 20 7 11 1010.1 1007.5 0.0
23/04:00pm 30.2 27.7 9.7 28 11.8 WSW 13 30 7 16 1010.0 1007.4 0.0
23/03:30pm 29.7 28.0 9.8 29 11.4 NW 9 15 5 8 1010.3 1007.7 0.0
23/03:00pm 30.4 28.6 10.9 30 11.4 W 11 24 6 13 1010.4 1007.8 0.0
23/02:30pm 29.6 27.1 11.2 32 10.8 SE 15 19 8 10 1010.5 1007.9 0.0
23/02:00pm 29.5 27.9 11.5 33 10.6 E 11 13 6 7 1010.7 1008.1 0.0
23/01:30pm 29.0 27.4 11.6 34 10.2 SSE 11 15 6 8 1011.4 1008.7 0.0
23/01:00pm 28.2 27.3 11.3 35 9.9 S 7 15 4 8 1011.6 1009.0 0.0
23/12:30pm 27.0 26.0 12.3 40 8.7 S 9 17 5 9 1012.1 1009.5 0.0
23/12:00pm 26.7 26.1 12.4 41 8.4 ESE 7 13 4 7 1012.5 1009.9 0.0
23/11:30am 25.9 24.6 12.4 43 7.9 SE 11 17 6 9 1013.0 1010.4 0.0
23/11:00am 25.1 23.6 12.0 44 7.6 ESE 11 17 6 9 1013.3 1010.7 0.0
23/10:30am 24.4 22.4 11.4 44 7.5 S 13 26 7 14 1013.7 1011.2 0.0
23/10:00am 23.0 20.1 11.1 47 6.7 S 17 24 9 13 1014.0 1011.4 0.0
23/09:30am 22.6 20.1 11.0 48 6.6 S 15 24 8 13 1014.1 1011.5 0.0
23/09:00am 20.9 18.4 11.0 53 5.5 S 15 22 8 12 1014.1 1011.5 0.0
23/08:30am 20.2 17.8 11.4 57 4.9 SSE 15 20 8 11 1014.1 1011.5 0.0
23/08:00am 19.1 16.4 11.7 62 4.2 SSE 17 20 9 11 1014.0 1011.4 0.0
23/07:30am 18.1 15.1 11.9 67 3.5 S 19 24 10 13 1013.6 1011.1 0.0
23/07:00am 17.7 15.3 11.5 67 3.4 SSW 15 19 8 10 1013.4 1010.8 0.0
23/06:30am 17.5 15.4 11.3 67 3.4 SSW 13 15 7 8 1013.4 1010.8 0.0
23/06:00am 17.9 16.2 11.2 65 3.7 SSW 11 15 6 8 1013.2 1010.6 0.0
23/05:30am 18.2 16.2 11.5 65 3.7 SSW 13 17 7 9 1012.9 1010.3 0.0
23/05:00am 18.5 16.2 11.8 65 3.8 SSW 15 20 8 11 1012.6 1010.0 0.0
23/04:30am 18.7 16.0 11.8 64 3.9 SSW 17 20 9 11 1012.4 1009.8 0.0
23/04:00am 19.0 16.3 11.6 62 4.2 SSW 17 22 9 12 1012.3 1009.7 0.0
23/03:30am 19.4 16.6 11.4 60 4.5 SSW 17 20 9 11 1012.2 1009.6 0.0
23/03:00am 19.8 16.4 11.3 58 4.8 SSW 20 30 11 16 1012.1 1009.5 0.0
23/02:30am 20.3 16.8 11.0 55 5.2 SSW 20 28 11 15 1012.1 1009.5 0.0
23/02:00am 20.8 17.3 10.9 53 5.5 SW 20 26 11 14 1012.2 1009.6 0.0
23/01:30am 21.6 18.1 10.1 48 6.4 SSW 19 26 10 14 1012.2 1009.6 0.0
23/01:00am 22.3 18.3 9.1 43 7.2 SSW 20 28 11 15 1012.2 1009.6 0.0
23/12:30am 23.1 19.1 8.4 39 8.0 SSW 19 26 10 14 1012.2 1009.6 0.0
23/12:00am 23.9 19.7 8.3 37 8.5 SW 20 26 11 14 1012.3 1009.7 0.0
 
Date/Time
WST
Temp
°C
App
Temp
°C
Dew
Point
°C
Rel
Hum
%
Delta-T
°C
Wind Press
QNH
hPa
Press
MSL
hPa
Rain since
9am
mm
Dir  Spd
km/h
Gust
km/h
Spd
kts
Gust
kts
22/11:30pm 24.5 20.6 8.5 36 8.7 SSW 19 28 10 15 1012.3 1009.7 0.0
22/11:00pm 25.1 21.8 8.1 34 9.3 SSW 15 20 8 11 1012.5 1009.9 0.0
22/10:30pm 25.4 21.7 8.0 33 9.5 SSW 17 20 9 11 1012.5 1009.9 0.0
22/10:00pm 25.4 24.6 8.0 33 9.5 SW 2 6 1 3 1012.2 1009.6 0.0
22/09:30pm 25.7 24.1 7.8 32 9.7 SW 6 6 3 3 1012.0 1009.4 0.0
22/09:00pm 26.0 23.8 8.0 32 9.8 SW 9 9 5 5 1011.5 1008.9 0.0
22/08:30pm 26.4 23.8 7.9 31 10.1 SW 11 13 6 7 1011.4 1008.7 0.0
22/08:00pm 26.6 23.6 7.6 30 10.3 SW 13 15 7 8 1011.0 1008.4 0.0
22/07:30pm 27.0 24.1 8.0 30 10.4 SW 13 17 7 9 1010.6 1008.0 0.0
22/07:00pm 27.4 23.5 8.8 31 10.4 SW 19 24 10 13 1010.3 1007.7 0.0
22/06:30pm 27.7 24.1 10.0 33 10.1 SW 19 24 10 13 1009.8 1007.2 0.0
22/06:00pm 28.1 24.4 10.3 33 10.2 SW 20 26 11 14 1009.6 1007.0 0.0
22/05:30pm 28.7 25.7 10.8 33 10.4 WSW 17 22 9 12 1009.2 1006.6 0.0
22/05:00pm 29.4 26.9 11.0 32 10.7 SW 15 22 8 12 1009.0 1006.3 0.0
22/04:30pm 29.1 27.0 11.2 33 10.5 WSW 13 24 7 13 1009.0 1006.3 0.0
22/04:00pm 29.9 27.5 11.4 32 10.9 W 15 26 8 14 1008.9 1006.2 0.0
22/03:30pm 29.7 27.8 11.7 33 10.6 NNW 13 20 7 11 1008.9 1006.2 0.0
22/03:00pm 28.5 27.8 12.0 36 9.8 ENE 7 15 4 8 1009.3 1006.7 0.0
22/02:30pm 27.6 26.1 12.0 38 9.2 SW 11 22 6 12 1009.5 1006.9 0.0
22/02:00pm 27.2 26.1 12.0 38 8.9 SSW 9 15 5 8 1009.9 1007.3 0.0
22/01:30pm 27.9 26.5 12.3 38 9.2 NNW 11 19 6 10 1010.1 1007.5 0.0
22/01:00pm 27.2 26.5 12.0 38 8.9 W 7 15 4 8 1010.3 1007.7 0.0
22/12:30pm 25.8 24.1 12.3 43 7.9 W 13 22 7 12 1010.6 1008.0 0.0
22/12:00pm 25.5 24.5 12.4 44 7.7 SW 9 17 5 9 1011.1 1008.5 0.0
22/11:30am 24.1 23.0 12.1 47 7.0 WNW 9 13 5 7 1011.7 1009.1 0.0
22/11:00am 23.6 22.5 12.0 48 6.7 SW 9 20 5 11 1012.0 1009.4 0.0
22/10:30am 23.2 21.4 12.2 50 6.4 SW 13 17 7 9 1012.2 1009.6 0.0
22/10:00am 22.5 20.0 12.4 52 5.8 SW 17 22 9 12 1012.3 1009.7 0.0
22/09:30am 21.8 20.5 12.4 55 5.4 SW 11 17 6 9 1012.7 1010.1 0.0
22/09:00am 21.5 19.8 12.4 56 5.2 SW 13 20 7 11 1012.7 1010.1 0.0
22/08:30am 21.1 19.8 12.5 58 5.0 WSW 11 17 6 9 1012.5 1009.9 0.0
22/08:00am 20.2 18.5 12.4 61 4.5 WSW 13 19 7 10 1012.4 1009.8 0.0
22/07:30am 19.6 17.8 12.1 62 4.3 WSW 13 17 7 9 1012.0 1009.4 0.0
22/07:00am 19.0 17.9 11.8 63 4.1 SW 9 11 5 6 1011.6 1009.0 0.0
22/06:30am 18.7 17.6 12.0 65 3.8 WSW 9 11 5 6 1011.4 1008.7 0.0
22/06:00am 18.9 17.8 11.9 64 3.9 WSW 9 11 5 6 1010.9 1008.3 0.0
22/05:30am 19.2 18.1 12.0 63 4.1 WSW 9 13 5 7 1010.7 1008.1 0.0
22/05:00am 19.6 18.1 11.9 61 4.4 WSW 11 13 6 7 1010.4 1007.8 0.0
22/04:30am 19.7 17.8 11.7 60 4.5 WSW 13 19 7 10 1010.1 1007.5 0.0
22/04:00am 20.0 17.9 12.5 62 4.3 WSW 15 20 8 11 1009.9 1007.3 0.0
22/03:30am 20.4 18.4 12.6 61 4.5 WSW 15 20 8 11 1010.2 1007.6 0.0
22/03:00am 21.0 18.4 11.9 56 5.2 WSW 17 20 9 11 1010.2 1007.6 0.0
22/02:30am 21.2 18.1 12.1 56 5.2 SW 20 24 11 13 1010.2 1007.6 0.0
22/02:00am 21.6 18.7 12.2 55 5.4 WSW 19 24 10 13 1010.5 1007.9 0.0
22/01:30am 21.9 19.1 12.5 55 5.4 SW 19 26 10 14 1010.4 1007.8 0.0
22/01:00am 22.1 19.7 12.6 55 5.5 WSW 17 22 9 12 1010.5 1007.9 0.0
22/12:30am 22.4 19.7 12.9 55 5.5 SW 19 26 10 14 1010.6 1008.0 0.0
22/12:00am 22.7 19.1 13.2 55 5.6 WSW 24 30 13 16 1010.5 1007.9 0.0
 
Date/Time
WST
Temp
°C
App
Temp
°C
Dew
Point
°C
Rel
Hum
%
Delta-T
°C
Wind Press
QNH
hPa
Press
MSL
hPa
Rain since
9am
mm
Dir  Spd
km/h
Gust
km/h
Spd
kts
Gust
kts
21/11:30pm 23.4 20.4 13.6 54 5.8 SW 22 30 12 16 1010.3 1007.7 0.0
21/11:00pm 24.3 20.5 13.5 51 6.4 SW 26 32 14 17 1009.9 1007.3 0.0
21/10:30pm 25.1 20.0 13.0 47 7.2 WSW 32 39 17 21 1009.5 1006.9 0.0
21/10:00pm 28.6 25.3 11.6 34 10.0 SW 20 32 11 17 1009.0 1006.3 0.0
21/09:30pm 29.8 26.7 10.4 30 11.2 WSW 17 22 9 12 1008.5 1005.9 0.0
21/09:00pm 30.3 26.5 11.3 31 11.2 W 22 32 12 17 1008.1 1005.5 0.0
21/08:30pm 30.9 27.1 11.3 30 11.6 WNW 22 30 12 16 1007.7 1005.1 0.0
21/08:00pm 31.4 26.8 11.2 29 11.9 WNW 26 33 14 18 1007.3 1004.7 0.0
21/07:30pm 32.0 28.2 11.2 28 12.3 WNW 22 30 12 16 1006.9 1004.2 0.0
21/07:00pm 33.0 27.9 7.8 21 14.2 WNW 24 32 13 17 1006.2 1003.5 0.0
21/06:30pm 33.8 27.8 5.4 17 15.5 NW 26 33 14 18 1005.5 1002.9 0.0
21/06:00pm 34.3 27.0 7.4 19 15.2 NW 35 48 19 26 1005.0 1002.4 0.0
21/05:30pm 35.0 28.4 8.7 20 15.2 NW 33 44 18 24 1004.7 1002.0 0.0
21/05:02pm 35.6 28.0 9.2 20 15.4 NNW 39 57 21 31 1004.5 1001.8 0.0
21/05:00pm 36.0 29.5 10.2 21 15.3 NNW 35 50 19 27 1004.5 1001.8 0.0
21/04:30pm 35.9 29.0 11.5 23 14.7 NW 39 56 21 30 1004.1 1001.4 0.0
21/04:23pm 36.4 30.7 11.3 22 15.1 NW 32 54 17 29 1003.9 1001.2 0.0
21/04:00pm 34.0 31.8 15.9 33 11.6 NNE 22 30 12 16 1003.9 1001.2 0.0

Other Formats:

Comma delimited format used in spreadsheet applications
http://www.bom.gov.au/fwo/IDW60801/IDW60801.94429.axf

JavaScript Object Notation format (JSON) in row-major order
http://www.bom.gov.au/fwo/IDW60801/IDW60801.94429.json